createdAt,value
2023-04-19T00:04:57.875Z,100976.40
2023-04-19T00:10:03.821Z,100967.20
2023-04-19T00:15:11.577Z,100962.20
2023-04-19T00:20:17.300Z,100954.60
2023-04-19T00:25:23.194Z,100955.40
2023-04-19T00:30:28.954Z,100947.60
2023-04-19T00:35:34.750Z,100949.60
2023-04-19T00:40:40.531Z,100936.60
2023-04-19T00:45:46.448Z,100930.40
2023-04-19T00:50:52.486Z,100922.20
2023-04-19T00:56:02.368Z,100910.80
2023-04-19T01:01:08.374Z,100903.60
2023-04-19T01:06:14.405Z,100894.80
2023-04-19T01:11:20.150Z,100899.00
2023-04-19T01:16:26.738Z,100904.00
2023-04-19T01:21:32.800Z,100898.40
2023-04-19T01:26:38.438Z,100893.80
2023-04-19T01:31:48.790Z,100876.20
2023-04-19T01:36:54.442Z,100875.60
2023-04-19T01:42:00.880Z,100873.60
2023-04-19T01:47:06.880Z,100876.40
2023-04-19T01:52:12.777Z,100870.00
2023-04-19T01:57:18.986Z,100872.80
2023-04-19T02:02:25.258Z,100875.60
2023-04-19T02:07:31.243Z,100863.80
2023-04-19T02:12:38.295Z,100835.80
2023-04-19T02:17:46.214Z,100806.00
2023-04-19T02:22:51.976Z,100857.40
2023-04-19T02:27:57.756Z,100836.20
2023-04-19T02:33:03.686Z,100829.60
2023-04-19T02:38:09.300Z,100830.20
2023-04-19T02:43:15.022Z,100828.00
2023-04-19T02:48:20.682Z,100816.00
2023-04-19T02:53:26.337Z,100806.00
2023-04-19T02:58:31.881Z,100810.80
2023-04-19T03:03:37.622Z,100800.00
2023-04-19T03:08:43.348Z,100799.40
2023-04-19T03:13:48.962Z,100792.80
2023-04-19T03:18:54.610Z,100782.20
2023-04-19T03:24:00.207Z,100759.80
2023-04-19T03:29:05.981Z,100763.00
2023-04-19T03:34:11.604Z,100776.60
2023-04-19T03:39:17.179Z,100779.00
2023-04-19T03:44:22.725Z,100765.20
2023-04-19T03:49:28.346Z,100762.60
2023-04-19T03:54:33.850Z,100749.00
2023-04-19T03:59:39.421Z,100753.40
2023-04-19T04:04:45.135Z,100761.40
2023-04-19T04:09:51.282Z,100751.80
2023-04-19T04:14:57.196Z,100748.00
2023-04-19T04:20:03.157Z,100745.00
2023-04-19T04:25:12.158Z,100753.80
2023-04-19T04:30:18.593Z,100759.40
2023-04-19T04:35:24.354Z,100752.60
2023-04-19T04:40:30.354Z,100748.20
2023-04-19T04:45:37.402Z,100748.00
2023-04-19T04:50:43.784Z,100728.20
2023-04-19T04:55:50.417Z,100728.40
2023-04-19T05:00:56.069Z,100726.00
2023-04-19T05:06:01.835Z,100716.80
2023-04-19T05:11:08.575Z,100705.80
2023-04-19T05:16:14.473Z,100703.60
2023-04-19T05:21:20.510Z,100712.00
2023-04-19T05:26:26.228Z,100710.00
2023-04-19T05:31:32.120Z,100709.80
2023-04-19T05:36:38.215Z,100701.20
2023-04-19T05:41:44.074Z,100691.60
2023-04-19T05:46:49.683Z,100688.60
2023-04-19T05:51:56.574Z,100680.00
2023-04-19T05:57:02.557Z,100678.60
2023-04-19T06:02:09.737Z,100680.40
2023-04-19T06:07:27.543Z,100676.20
2023-04-19T06:12:36.584Z,100681.80
2023-04-19T06:17:42.470Z,100689.80
2023-04-19T06:22:50.900Z,100700.40
2023-04-19T06:27:56.617Z,100696.00
2023-04-19T06:33:02.340Z,100697.80
2023-04-19T06:38:08.029Z,100692.80
2023-04-19T06:43:13.596Z,100710.60
2023-04-19T06:48:19.172Z,100714.20
2023-04-19T06:53:26.504Z,100711.80
2023-04-19T06:58:34.465Z,100718.20
2023-04-19T07:03:41.348Z,100728.80
2023-04-19T07:08:50.296Z,100735.60
2023-04-19T07:13:56.478Z,100739.80
2023-04-19T07:19:02.290Z,100731.00
2023-04-19T07:24:08.773Z,100721.60
2023-04-19T07:29:14.795Z,100726.00
2023-04-19T07:34:20.466Z,100724.20
2023-04-19T07:39:26.537Z,100727.40
2023-04-19T07:44:32.618Z,100731.00
2023-04-19T07:49:38.589Z,100728.60
2023-04-19T07:54:44.430Z,100730.80
2023-04-19T07:59:50.167Z,100712.40
2023-04-19T08:04:56.162Z,100703.80
2023-04-19T08:10:02.130Z,100710.80
2023-04-19T08:15:32.768Z,100715.60
2023-04-19T08:20:36.591Z,100721.80
2023-04-19T08:25:42.433Z,100701.40
2023-04-19T08:30:50.505Z,100700.80
2023-04-19T08:35:56.213Z,100693.20
2023-04-19T08:41:02.514Z,100690.40
2023-04-19T08:46:11.087Z,100694.20
2023-04-19T08:51:19.450Z,100702.20
2023-04-19T08:56:35.467Z,100698.00
2023-04-19T09:01:44.475Z,100693.20
2023-04-19T09:06:50.696Z,100695.80
2023-04-19T09:11:57.039Z,100682.00
2023-04-19T09:17:17.033Z,100684.40
2023-04-19T09:22:23.138Z,100688.40
2023-04-19T09:27:32.608Z,100693.00
2023-04-19T09:32:49.679Z,100702.00
2023-04-19T09:38:06.925Z,100701.60
2023-04-19T09:43:40.559Z,100693.80
2023-04-19T09:48:38.843Z,100711.00
2023-04-19T09:53:45.525Z,100714.20
2023-04-19T09:58:56.549Z,100713.40
2023-04-19T10:04:29.486Z,100721.80
2023-04-19T10:09:52.964Z,100713.40
2023-04-19T10:20:54.697Z,100721.80
2023-04-19T10:26:00.754Z,100727.20
2023-04-19T10:31:11.287Z,100750.20
2023-04-19T10:36:18.789Z,100748.60
2023-04-19T10:41:24.694Z,100742.20
2023-04-19T10:46:40.897Z,100733.80
2023-04-19T10:51:54.387Z,100741.40
2023-04-19T10:57:05.704Z,100739.60
2023-04-19T11:02:33.257Z,100733.20
2023-04-19T11:07:43.530Z,100732.00
2023-04-19T11:12:49.155Z,100724.60
2023-04-19T11:18:08.808Z,100740.00
2023-04-19T11:23:19.983Z,100747.40
2023-04-19T11:28:25.943Z,100756.00
2023-04-19T11:33:36.661Z,100753.80
2023-04-19T11:38:42.375Z,100714.00
2023-04-19T11:43:48.282Z,100728.40
2023-04-19T11:48:54.881Z,100687.20
2023-04-19T11:54:00.577Z,100677.60
2023-04-19T11:59:10.589Z,100689.40
2023-04-19T12:04:16.692Z,100722.60
2023-04-19T12:09:24.232Z,100726.60
2023-04-19T12:14:31.297Z,100752.00
2023-04-19T12:19:42.815Z,100772.20
2023-04-19T12:24:51.133Z,100773.40
2023-04-19T12:29:57.337Z,100771.60
2023-04-19T12:35:03.018Z,100779.20
2023-04-19T12:40:12.875Z,100785.00
2023-04-19T12:45:19.710Z,100782.20
2023-04-19T12:50:25.520Z,100781.00
2023-04-19T12:55:31.333Z,100781.60
2023-04-19T13:00:36.814Z,100784.60
2023-04-19T13:05:42.571Z,100788.60
2023-04-19T13:10:48.357Z,100785.60
2023-04-19T13:15:54.258Z,100781.20
2023-04-19T13:20:59.933Z,100792.20
2023-04-19T13:26:06.321Z,100796.60
2023-04-19T13:31:12.245Z,100783.20
2023-04-19T13:36:18.158Z,100785.80
2023-04-19T13:41:24.009Z,100796.80
2023-04-19T13:46:29.999Z,100781.80
2023-04-19T13:51:48.949Z,100790.60
2023-04-19T13:56:57.571Z,100780.20
2023-04-19T14:02:05.327Z,100792.40
2023-04-19T14:07:11.041Z,100781.40
2023-04-19T14:12:17.389Z,100785.60
2023-04-19T14:17:23.004Z,100786.00
2023-04-19T14:22:28.693Z,100780.40
2023-04-19T14:27:34.576Z,100783.60
2023-04-19T14:32:40.419Z,100778.40
2023-04-19T14:37:46.362Z,100772.80
2023-04-19T14:42:52.937Z,100766.60
2023-04-19T14:47:58.695Z,100770.40
2023-04-19T14:53:04.733Z,100767.40
2023-04-19T14:58:10.392Z,100774.20
2023-04-19T15:03:17.330Z,100771.40
2023-04-19T15:08:30.137Z,100756.80
2023-04-19T15:13:36.490Z,100756.60
2023-04-19T15:18:42.091Z,100753.60
2023-04-19T15:23:47.834Z,100753.00
2023-04-19T15:28:54.430Z,100744.40
2023-04-19T15:34:03.411Z,100745.80
2023-04-19T15:39:09.033Z,100658.00
2023-04-19T15:44:14.644Z,100668.80
2023-04-19T15:49:20.532Z,100683.60
2023-04-19T15:54:26.786Z,100708.40
2023-04-19T15:59:32.662Z,100750.40
2023-04-19T16:04:38.429Z,100732.80
2023-04-19T16:09:44.177Z,100744.40
2023-04-19T16:14:49.820Z,100723.40
2023-04-19T16:19:55.660Z,100761.00
2023-04-19T16:25:01.240Z,100763.20
2023-04-19T16:30:09.981Z,100764.80
2023-04-19T16:35:17.850Z,100758.20
2023-04-19T16:40:24.104Z,100757.00
2023-04-19T16:45:30.165Z,100751.80
2023-04-19T16:50:36.108Z,100749.20
2023-04-19T16:55:41.992Z,100756.40
2023-04-19T17:00:47.888Z,100760.60
2023-04-19T17:05:53.656Z,100774.20
2023-04-19T17:10:59.681Z,100809.00
2023-04-19T17:16:07.636Z,100765.80
2023-04-19T17:21:15.673Z,100766.60
2023-04-19T17:26:21.467Z,100760.20
2023-04-19T17:31:27.519Z,100760.80
2023-04-19T17:36:33.626Z,100763.40
2023-04-19T17:41:39.507Z,100773.00
2023-04-19T17:46:45.758Z,100795.20
2023-04-19T17:51:52.703Z,100808.60
2023-04-19T17:56:59.109Z,100840.20
2023-04-19T18:02:04.835Z,100854.60
2023-04-19T18:07:10.748Z,100880.40
2023-04-19T18:12:16.444Z,100886.20
2023-04-19T18:17:22.190Z,100901.60
2023-04-19T18:22:27.931Z,100908.00
2023-04-19T18:27:33.790Z,100916.60
2023-04-19T18:32:39.752Z,100923.60
2023-04-19T18:37:45.761Z,100920.80
2023-04-19T18:42:51.440Z,100913.60
2023-04-19T18:47:57.226Z,100907.20
2023-04-19T18:53:03.383Z,100909.40
2023-04-19T18:58:09.270Z,100900.20
2023-04-19T19:03:39.996Z,100895.00
2023-04-19T19:08:40.862Z,100886.40
2023-04-19T19:13:46.607Z,100895.80
2023-04-19T19:18:52.966Z,100888.60
2023-04-19T19:23:59.087Z,100887.60
2023-04-19T19:29:05.879Z,100886.00
2023-04-19T19:34:25.260Z,100887.20
2023-04-19T19:39:34.921Z,100891.80
2023-04-19T19:44:40.761Z,100893.00
2023-04-19T19:50:21.330Z,100893.20
2023-04-19T19:55:13.468Z,100881.80
2023-04-19T20:05:28.933Z,100874.40
2023-04-19T20:10:35.022Z,100882.40
2023-04-19T20:15:41.604Z,100882.20
2023-04-19T20:20:47.232Z,100888.00
2023-04-19T20:25:52.807Z,100890.00
2023-04-19T20:30:58.406Z,100894.00
2023-04-19T20:36:04.231Z,100906.60
2023-04-19T20:41:10.150Z,100905.80
2023-04-19T20:46:16.544Z,100917.40
2023-04-19T20:51:22.313Z,100923.80
2023-04-19T20:56:28.057Z,100921.60
2023-04-19T21:01:34.263Z,100924.60
2023-04-19T21:06:40.093Z,100923.80
2023-04-19T21:11:45.727Z,100929.60
2023-04-19T21:16:51.344Z,100928.80
2023-04-19T21:21:56.916Z,100953.60
2023-04-19T21:27:02.523Z,100939.80
2023-04-19T21:32:08.863Z,100945.60
2023-04-19T21:37:14.937Z,100944.00
2023-04-19T21:42:20.921Z,100945.00
2023-04-19T21:47:27.192Z,100944.20
2023-04-19T21:52:33.036Z,100942.00
2023-04-19T21:57:39.077Z,100943.60
2023-04-19T22:02:44.876Z,100942.80
2023-04-19T22:07:50.872Z,100932.40
2023-04-19T22:12:58.767Z,100928.00
2023-04-19T22:18:05.400Z,100928.20
2023-04-19T22:23:11.201Z,100931.20
2023-04-19T22:28:17.009Z,100928.20
2023-04-19T22:33:22.933Z,100924.80
2023-04-19T22:38:28.561Z,100920.80
2023-04-19T22:43:34.175Z,100918.00
2023-04-19T22:48:39.710Z,100908.80
2023-04-19T22:53:45.307Z,100905.20
2023-04-19T22:58:50.903Z,100893.80
2023-04-19T23:03:56.690Z,100893.60
2023-04-19T23:09:02.444Z,100893.40
2023-04-19T23:14:10.071Z,100888.20
2023-04-19T23:19:17.068Z,100889.00
2023-04-19T23:24:22.791Z,100887.00
2023-04-19T23:29:28.283Z,100883.40
2023-04-19T23:34:34.049Z,100882.00
2023-04-19T23:39:39.700Z,100888.00
2023-04-19T23:44:45.374Z,100874.20
2023-04-19T23:49:50.957Z,100877.20
2023-04-19T23:54:56.494Z,100866.60
